createdAt,value
2016-03-08T00:00:56.187Z,0
2016-03-08T00:01:56.097Z,0
2016-03-08T00:02:56.067Z,0
2016-03-08T00:03:55.978Z,0
2016-03-08T00:04:55.917Z,0
2016-03-08T00:05:55.905Z,0
2016-03-08T00:06:55.829Z,0
2016-03-08T00:07:55.738Z,0
2016-03-08T00:08:55.741Z,0
2016-03-08T00:09:55.602Z,0
2016-03-08T00:10:55.558Z,0
2016-03-08T00:11:55.530Z,0
2016-03-08T00:12:55.439Z,0
2016-03-08T00:13:55.394Z,0
2016-03-08T00:14:55.304Z,0
2016-03-08T00:15:55.274Z,0
2016-03-08T00:16:55.185Z,0
2016-03-08T00:17:55.202Z,0
2016-03-08T00:18:55.126Z,0
2016-03-08T00:19:55.035Z,0
2016-03-08T00:20:54.976Z,0
2016-03-08T00:21:54.901Z,0
2016-03-08T00:22:54.888Z,0
2016-03-08T00:23:54.781Z,0
2016-03-08T00:24:54.720Z,0
2016-03-08T00:25:54.662Z,0
2016-03-08T00:26:54.586Z,0
2016-03-08T00:27:54.634Z,0
2016-03-08T00:28:54.513Z,0
2016-03-08T00:29:54.406Z,0
2016-03-08T00:30:54.378Z,0
2016-03-08T00:31:54.287Z,0
2016-03-08T00:32:54.242Z,0
2016-03-08T00:33:54.198Z,0
2016-03-08T00:34:54.123Z,0
2016-03-08T00:35:54.063Z,0
2016-03-08T00:36:53.988Z,0
2016-03-08T00:37:53.928Z,0
2016-03-08T00:38:53.931Z,0
2016-03-08T00:39:53.824Z,0
2016-03-08T00:40:53.733Z,0
2016-03-08T00:41:53.704Z,0
2016-03-08T00:42:53.675Z,0
2016-03-08T00:43:53.600Z,0
2016-03-08T00:44:53.509Z,0
2016-03-08T00:45:53.465Z,0
2016-03-08T00:46:53.389Z,0
2016-03-08T00:47:53.346Z,0
2016-03-08T00:48:53.270Z,0
2016-03-08T00:49:53.226Z,0
2016-03-08T00:50:53.151Z,0
2016-03-08T00:51:53.121Z,0
2016-03-08T00:52:53.046Z,0
2016-03-08T00:53:52.955Z,0
2016-03-08T00:54:52.942Z,0
2016-03-08T00:55:52.867Z,0
2016-03-08T00:56:52.807Z,0
2016-03-08T00:57:52.715Z,0
2016-03-08T00:58:52.516Z,0
2016-03-08T00:59:52.659Z,0
2016-03-08T01:00:52.568Z,0
2016-03-08T01:01:52.508Z,0
2016-03-08T01:02:52.448Z,0
2016-03-08T01:03:52.389Z,0
2016-03-08T01:04:52.172Z,0
2016-03-08T01:05:52.269Z,0
2016-03-08T01:06:52.209Z,0
2016-03-08T01:07:52.133Z,0
2016-03-08T01:08:52.074Z,0
2016-03-08T01:09:52.038Z,0
2016-03-08T01:10:51.935Z,0
2016-03-08T01:11:51.863Z,0
2016-03-08T01:12:51.806Z,0
2016-03-08T01:13:51.718Z,0
2016-03-08T01:14:51.666Z,0
2016-03-08T01:15:51.587Z,0
2016-03-08T01:16:51.539Z,0
2016-03-08T01:17:51.303Z,0
2016-03-08T01:18:51.379Z,0
2016-03-08T01:19:51.363Z,0
2016-03-08T01:20:51.272Z,0
2016-03-08T01:21:51.226Z,0
2016-03-08T01:22:51.164Z,0
2016-03-08T01:23:51.133Z,0
2016-03-08T01:24:51.042Z,0
2016-03-08T01:25:51.137Z,0
2016-03-08T01:26:50.906Z,0
2016-03-08T01:27:50.844Z,0
2016-03-08T01:28:50.799Z,0
2016-03-08T01:29:50.707Z,0
2016-03-08T01:30:50.726Z,0
2016-03-08T01:31:50.619Z,0
2016-03-08T01:32:50.543Z,0
2016-03-08T01:33:50.483Z,0
2016-03-08T01:34:50.438Z,0
2016-03-08T01:35:50.362Z,0
2016-03-08T01:36:50.304Z,0
2016-03-08T01:37:50.259Z,0
2016-03-08T01:38:50.198Z,0
2016-03-08T01:39:50.124Z,0
2016-03-08T01:40:50.064Z,0
2016-03-08T01:41:50.004Z,0
2016-03-08T01:42:49.990Z,0
2016-03-08T01:43:49.900Z,0
2016-03-08T01:44:49.840Z,0
2016-03-08T01:45:49.859Z,0
2016-03-08T01:46:49.720Z,0
2016-03-08T01:47:49.645Z,0
2016-03-08T01:48:49.569Z,0
2016-03-08T01:49:49.557Z,0
2016-03-08T01:50:49.512Z,0
2016-03-08T01:51:49.421Z,0
2016-03-08T01:52:49.361Z,0
2016-03-08T01:53:49.286Z,0
2016-03-08T01:54:49.241Z,0
2016-03-08T01:55:49.183Z,0
2016-03-08T01:56:49.138Z,0
2016-03-08T01:57:49.046Z,0
2016-03-08T01:58:49.003Z,0
2016-03-08T01:59:48.943Z,0
2016-03-08T02:00:48.883Z,0
2016-03-08T02:01:48.823Z,0
2016-03-08T02:02:48.779Z,0
2016-03-08T02:03:48.704Z,0
2016-03-08T02:04:48.629Z,0
2016-03-08T02:05:48.569Z,0
2016-03-08T02:06:48.524Z,0
2016-03-08T02:07:48.464Z,0
2016-03-08T02:08:48.390Z,0
2016-03-08T02:09:48.345Z,0
2016-03-08T02:10:48.284Z,0
2016-03-08T02:11:48.194Z,0
2016-03-08T02:12:48.181Z,0
2016-03-08T02:13:48.168Z,0
2016-03-08T02:14:48.046Z,0
2016-03-08T02:15:47.970Z,0
2016-03-08T02:16:47.926Z,0
2016-03-08T02:17:47.851Z,0
2016-03-08T02:18:47.775Z,0
2016-03-08T02:19:47.731Z,0
2016-03-08T02:20:47.671Z,0
2016-03-08T02:21:47.642Z,0
2016-03-08T02:22:47.567Z,0
2016-03-08T02:23:47.508Z,0
2016-03-08T02:24:47.432Z,0
2016-03-08T02:25:47.356Z,0
2016-03-08T02:26:47.328Z,0
2016-03-08T02:27:47.236Z,0
2016-03-08T02:28:47.193Z,0
2016-03-08T02:29:47.116Z,0
2016-03-08T02:30:46.917Z,0
2016-03-08T02:31:47.044Z,0
2016-03-08T02:32:46.954Z,0
2016-03-08T02:33:46.878Z,0
2016-03-08T02:34:46.849Z,0
2016-03-08T02:35:46.758Z,0
2016-03-08T02:36:46.699Z,0
2016-03-08T02:37:46.702Z,0
2016-03-08T02:38:46.579Z,0
2016-03-08T02:39:46.518Z,0
2016-03-08T02:40:49.491Z,0
2016-03-08T02:41:46.415Z,0
2016-03-08T02:42:46.356Z,0
2016-03-08T02:43:46.327Z,0
2016-03-08T02:44:46.236Z,0
2016-03-08T02:45:46.159Z,0
2016-03-08T02:46:46.148Z,0
2016-03-08T02:47:46.040Z,0
2016-03-08T02:48:46.012Z,0
2016-03-08T02:49:45.953Z,0
2016-03-08T02:50:46.048Z,0
2016-03-08T02:51:45.817Z,0
2016-03-08T02:52:45.789Z,0
2016-03-08T02:53:45.697Z,0
2016-03-08T02:54:45.622Z,0
2016-03-08T02:55:45.577Z,0
2016-03-08T02:56:45.503Z,0
2016-03-08T02:57:45.442Z,0
2016-03-08T02:58:45.413Z,0
2016-03-08T02:59:45.338Z,0
2016-03-08T03:00:45.310Z,0
2016-03-08T03:01:45.235Z,0
2016-03-08T03:02:45.128Z,0
2016-03-08T03:03:45.177Z,0
2016-03-08T03:04:45.024Z,0
2016-03-08T03:05:45.043Z,0
2016-03-08T03:06:44.905Z,0
2016-03-08T03:07:44.860Z,0
2016-03-08T03:08:44.784Z,0
2016-03-08T03:09:44.741Z,0
2016-03-08T03:10:44.681Z,0
2016-03-08T03:11:44.621Z,0
2016-03-08T03:12:44.562Z,0
2016-03-08T03:13:44.485Z,0
2016-03-08T03:14:44.441Z,0
2016-03-08T03:15:44.398Z,0
2016-03-08T03:16:44.290Z,0
2016-03-08T03:17:44.278Z,0
2016-03-08T03:18:44.233Z,0
2016-03-08T03:19:44.126Z,0
2016-03-08T03:20:44.067Z,0
2016-03-08T03:21:44.023Z,0
2016-03-08T03:22:43.995Z,0
2016-03-08T03:23:43.887Z,0
2016-03-08T03:24:43.811Z,0
2016-03-08T03:25:43.800Z,0
2016-03-08T03:26:43.739Z,0
2016-03-08T03:27:43.664Z,0
2016-03-08T03:28:43.588Z,0
2016-03-08T03:29:43.560Z,0
2016-03-08T03:30:43.469Z,0
2016-03-08T03:31:43.409Z,0
2016-03-08T03:32:43.350Z,0
2016-03-08T03:33:43.305Z,0
2016-03-08T03:34:43.213Z,0
2016-03-08T03:35:43.202Z,0
2016-03-08T03:36:43.110Z,0
2016-03-08T03:37:43.081Z,0
2016-03-08T03:38:42.974Z,0
2016-03-08T03:39:42.946Z,0
2016-03-08T03:40:42.870Z,0
2016-03-08T03:41:42.843Z,0
2016-03-08T03:42:42.751Z,0
2016-03-08T03:43:42.707Z,0
2016-03-08T03:44:42.631Z,0
2016-03-08T03:45:42.587Z,0
2016-03-08T03:46:42.512Z,0
2016-03-08T03:47:42.326Z,0
2016-03-08T03:48:42.392Z,0
2016-03-08T03:49:42.348Z,0
2016-03-08T03:50:42.288Z,0
2016-03-08T03:51:42.198Z,0
2016-03-08T03:52:42.137Z,0
2016-03-08T03:53:42.078Z,0
2016-03-08T03:54:42.034Z,0
2016-03-08T03:55:41.989Z,0
2016-03-08T03:56:41.914Z,0
2016-03-08T03:57:41.838Z,0
2016-03-08T03:58:41.794Z,0
2016-03-08T03:59:41.750Z,0
2016-03-08T04:00:41.674Z,0
2016-03-08T04:01:41.600Z,0
2016-03-08T04:02:41.571Z,0
2016-03-08T04:03:41.510Z,0
2016-03-08T04:04:41.419Z,0
2016-03-08T04:05:41.375Z,0
2016-03-08T04:06:41.310Z,0
2016-03-08T04:07:41.265Z,0
2016-03-08T04:08:41.206Z,0
2016-03-08T04:09:41.115Z,0
2016-03-08T04:10:41.086Z,0
2016-03-08T04:11:41.011Z,0
2016-03-08T04:12:40.982Z,0
2016-03-08T04:13:40.891Z,0
2016-03-08T04:14:40.801Z,0
2016-03-08T04:15:40.787Z,0
2016-03-08T04:16:40.712Z,0
2016-03-08T04:17:40.667Z,0
2016-03-08T04:18:40.608Z,0
2016-03-08T04:19:40.532Z,0
2016-03-08T04:20:40.488Z,0
2016-03-08T04:21:40.427Z,0
2016-03-08T04:22:40.336Z,0
2016-03-08T04:23:40.277Z,0
2016-03-08T04:24:40.217Z,0
2016-03-08T04:25:40.174Z,0
2016-03-08T04:26:40.082Z,0
2016-03-08T04:27:40.069Z,0
2016-03-08T04:28:40.025Z,0
2016-03-08T04:29:39.918Z,0
2016-03-08T04:30:39.858Z,0
2016-03-08T04:31:39.798Z,0
2016-03-08T04:32:39.755Z,0
2016-03-08T04:33:39.679Z,0
2016-03-08T04:34:39.651Z,0
2016-03-08T04:35:39.560Z,0
2016-03-08T04:36:39.515Z,0
2016-03-08T04:37:39.424Z,0
2016-03-08T04:38:39.427Z,0
2016-03-08T04:39:39.336Z,0
2016-03-08T04:40:39.260Z,0
2016-03-08T04:41:39.231Z,0
2016-03-08T04:42:39.141Z,0
2016-03-08T04:43:39.097Z,0
2016-03-08T04:44:39.006Z,0
2016-03-08T04:45:38.962Z,0
2016-03-08T04:46:38.933Z,0
2016-03-08T04:47:38.842Z,0
2016-03-08T04:48:38.798Z,0
2016-03-08T04:49:38.754Z,0
2016-03-08T04:50:38.678Z,0
2016-03-08T04:51:38.602Z,0
2016-03-08T04:52:38.527Z,0
2016-03-08T04:53:38.499Z,0
2016-03-08T04:54:38.438Z,0
2016-03-08T04:55:38.380Z,0
2016-03-08T04:56:38.335Z,0
2016-03-08T04:57:38.274Z,0
2016-03-08T04:58:38.199Z,0
2016-03-08T04:59:38.155Z,0
2016-03-08T05:00:38.064Z,0
2016-03-08T05:01:38.004Z,0
2016-03-08T05:02:37.957Z,0
2016-03-08T05:03:37.882Z,0
2016-03-08T05:04:38.026Z,0
2016-03-08T05:05:37.778Z,0
2016-03-08T05:06:37.719Z,0
2016-03-08T05:07:37.659Z,0
2016-03-08T05:08:37.583Z,0
2016-03-08T05:09:37.539Z,0
2016-03-08T05:10:37.479Z,0
2016-03-08T05:11:37.435Z,0
2016-03-08T05:12:37.172Z,0
2016-03-08T05:13:37.284Z,0
2016-03-08T05:14:37.240Z,0
2016-03-08T05:15:37.164Z,0
2016-03-08T05:16:37.121Z,0
2016-03-08T05:17:37.061Z,0
2016-03-08T05:18:36.985Z,0
2016-03-08T05:19:36.925Z,0
2016-03-08T05:20:36.865Z,0
2016-03-08T05:21:36.805Z,0
2016-03-08T05:22:36.745Z,0
2016-03-08T05:23:36.701Z,0
2016-03-08T05:24:36.626Z,0
2016-03-08T05:25:36.566Z,0
2016-03-08T05:26:36.522Z,0
2016-03-08T05:27:36.463Z,0
2016-03-08T05:28:36.230Z,0
2016-03-08T05:29:36.311Z,0
2016-03-08T05:30:36.266Z,0
2016-03-08T05:31:36.224Z,0
2016-03-08T05:32:36.132Z,0
2016-03-08T05:33:36.161Z,0
2016-03-08T05:34:36.068Z,0
2016-03-08T05:35:35.989Z,0
2016-03-08T05:36:35.899Z,0
2016-03-08T05:37:36.054Z,0
2016-03-08T05:38:36.469Z,0
2016-03-08T05:39:35.706Z,0
2016-03-08T05:40:35.645Z,0
2016-03-08T05:41:35.617Z,0
2016-03-08T05:42:35.525Z,0
2016-03-08T05:43:35.467Z,0
2016-03-08T05:44:35.437Z,0
2016-03-08T05:45:35.347Z,0
2016-03-08T05:46:35.271Z,0
2016-03-08T05:47:35.258Z,0
2016-03-08T05:48:35.167Z,4
2016-03-08T05:49:35.177Z,4
2016-03-08T05:50:35.039Z,0
2016-03-08T05:51:35.010Z,0
2016-03-08T05:52:34.935Z,0
2016-03-08T05:53:34.875Z,0
2016-03-08T05:54:34.815Z,0
2016-03-08T05:55:34.771Z,0
2016-03-08T05:56:34.711Z,0
2016-03-08T05:57:34.635Z,4
2016-03-08T05:58:34.576Z,4
2016-03-08T05:59:34.501Z,0
2016-03-08T06:00:34.456Z,0
2016-03-08T06:01:34.396Z,0
2016-03-08T06:02:34.336Z,0
2016-03-08T06:03:34.262Z,4
2016-03-08T06:04:34.232Z,4
2016-03-08T06:05:34.142Z,4
2016-03-08T06:06:34.117Z,0
2016-03-08T06:07:34.012Z,0
2016-03-08T06:08:33.967Z,4
2016-03-08T06:09:33.922Z,4
2016-03-08T06:10:33.847Z,4
2016-03-08T06:11:33.631Z,0
2016-03-08T06:12:33.744Z,4
2016-03-08T06:13:33.683Z,4
2016-03-08T06:14:33.608Z,4
2016-03-08T06:15:33.564Z,4
2016-03-08T06:16:33.519Z,4
2016-03-08T06:17:33.430Z,4
2016-03-08T06:18:33.369Z,4
2016-03-08T06:19:33.341Z,4
2016-03-08T06:20:33.265Z,4
2016-03-08T06:21:33.190Z,4
2016-03-08T06:22:33.146Z,4
2016-03-08T06:23:33.054Z,8
2016-03-08T06:24:33.010Z,4
2016-03-08T06:25:32.982Z,8
2016-03-08T06:26:32.891Z,8
2016-03-08T06:27:32.831Z,4
2016-03-08T06:28:32.771Z,4
2016-03-08T06:29:32.726Z,8
2016-03-08T06:30:32.667Z,8
2016-03-08T06:31:32.591Z,4
2016-03-08T06:32:32.532Z,4
2016-03-08T06:33:32.487Z,8
2016-03-08T06:34:32.412Z,8
2016-03-08T06:35:32.352Z,4
2016-03-08T06:36:32.308Z,8
2016-03-08T06:37:32.233Z,4
2016-03-08T06:38:32.188Z,8
2016-03-08T06:39:32.145Z,8
2016-03-08T06:40:32.037Z,8
2016-03-08T06:41:32.024Z,8
2016-03-08T06:42:32.027Z,8
2016-03-08T06:43:31.920Z,8
2016-03-08T06:44:31.830Z,8
2016-03-08T06:45:31.800Z,8
2016-03-08T06:46:31.788Z,8
2016-03-08T06:47:31.666Z,8
2016-03-08T06:48:31.574Z,8
2016-03-08T06:49:31.547Z,4
2016-03-08T06:50:31.471Z,8
2016-03-08T06:51:31.396Z,8
2016-03-08T06:52:31.382Z,8
2016-03-08T06:53:31.291Z,8
2016-03-08T06:54:31.107Z,8
2016-03-08T06:55:31.234Z,8
2016-03-08T06:56:31.127Z,12
2016-03-08T06:57:31.037Z,12
2016-03-08T06:58:31.008Z,12
2016-03-08T06:59:30.917Z,12
2016-03-08T07:00:30.857Z,12
2016-03-08T07:01:30.844Z,12
2016-03-08T07:02:30.737Z,12
2016-03-08T07:03:30.677Z,12
2016-03-08T07:04:30.649Z,16
2016-03-08T07:05:30.620Z,16
2016-03-08T07:06:30.513Z,16
2016-03-08T07:07:30.453Z,12
2016-03-08T07:08:30.409Z,12
2016-03-08T07:09:30.350Z,16
2016-03-08T07:10:30.134Z,16
2016-03-08T07:11:30.262Z,16
2016-03-08T07:12:30.155Z,16
2016-03-08T07:13:30.094Z,16
2016-03-08T07:14:30.066Z,20
2016-03-08T07:15:29.991Z,16
2016-03-08T07:16:29.916Z,16
2016-03-08T07:17:29.980Z,20
2016-03-08T07:18:29.843Z,16
2016-03-08T07:19:29.767Z,20
2016-03-08T07:20:29.707Z,20
2016-03-08T07:21:29.633Z,20
2016-03-08T07:22:29.541Z,24
2016-03-08T07:23:29.497Z,20
2016-03-08T07:24:29.452Z,20
2016-03-08T07:25:29.377Z,20
2016-03-08T07:26:29.349Z,24
2016-03-08T07:27:29.273Z,24
2016-03-08T07:28:29.213Z,24
2016-03-08T07:29:29.169Z,28
2016-03-08T07:30:29.109Z,24
2016-03-08T07:31:29.034Z,28
2016-03-08T07:32:28.990Z,28
2016-03-08T07:33:28.946Z,28
2016-03-08T07:34:28.823Z,28
2016-03-08T07:35:28.779Z,28
2016-03-08T07:36:29.110Z,28
2016-03-08T07:37:28.706Z,28
2016-03-08T07:38:28.599Z,32
2016-03-08T07:39:28.586Z,28
2016-03-08T07:40:28.511Z,32
2016-03-08T07:41:28.326Z,32
2016-03-08T07:42:28.392Z,32
2016-03-08T07:43:28.348Z,32
2016-03-08T07:44:28.303Z,36
2016-03-08T07:45:28.180Z,32
2016-03-08T07:46:28.169Z,36
2016-03-08T07:47:28.092Z,32
2016-03-08T07:48:28.033Z,36
2016-03-08T07:49:28.019Z,36
2016-03-08T07:50:27.929Z,36
2016-03-08T07:51:27.853Z,36
2016-03-08T07:52:27.793Z,36
2016-03-08T07:53:27.750Z,36
2016-03-08T07:54:27.690Z,36
2016-03-08T07:55:27.630Z,36
2016-03-08T07:56:27.570Z,40
2016-03-08T07:57:27.526Z,40
2016-03-08T07:58:27.419Z,44
2016-03-08T07:59:27.404Z,40
2016-03-08T08:00:27.360Z,44
2016-03-08T08:01:27.254Z,48
2016-03-08T08:02:27.209Z,48
2016-03-08T08:03:27.149Z,48
2016-03-08T08:04:27.183Z,44
2016-03-08T08:05:27.045Z,48
2016-03-08T08:06:26.970Z,48
2016-03-08T08:07:26.910Z,52
2016-03-08T08:08:26.882Z,48
2016-03-08T08:09:26.868Z,52
2016-03-08T08:10:26.762Z,52
2016-03-08T08:11:26.687Z,52
2016-03-08T08:12:26.595Z,48
2016-03-08T08:13:26.566Z,48
2016-03-08T08:14:26.492Z,44
2016-03-08T08:15:26.478Z,48
2016-03-08T08:16:26.387Z,44
2016-03-08T08:17:26.343Z,44
2016-03-08T08:18:26.267Z,40
2016-03-08T08:19:26.239Z,44
2016-03-08T08:20:26.147Z,40
2016-03-08T08:21:26.073Z,44
2016-03-08T08:22:26.060Z,44
2016-03-08T08:23:25.968Z,44
2016-03-08T08:24:25.908Z,48
2016-03-08T08:25:25.864Z,52
2016-03-08T08:26:25.055Z,56
2016-03-08T08:27:25.777Z,56
2016-03-08T08:28:25.685Z,56
2016-03-08T08:29:25.625Z,60
2016-03-08T08:30:25.566Z,68
2016-03-08T08:31:25.521Z,72
2016-03-08T08:32:25.430Z,76
2016-03-08T08:33:25.402Z,76
2016-03-08T08:34:25.310Z,80
2016-03-08T08:35:25.282Z,80
2016-03-08T08:36:25.207Z,80
2016-03-08T08:37:25.178Z,84
2016-03-08T08:38:25.103Z,80
2016-03-08T08:39:25.059Z,76
2016-03-08T08:40:24.968Z,72
2016-03-08T08:41:24.940Z,72
2016-03-08T08:42:24.864Z,68
2016-03-08T08:43:24.804Z,68
2016-03-08T08:44:24.759Z,68
2016-03-08T08:45:24.684Z,68
2016-03-08T08:46:24.624Z,64
2016-03-08T08:47:24.580Z,64
2016-03-08T08:48:24.520Z,60
2016-03-08T08:49:24.444Z,60
2016-03-08T08:50:24.416Z,56
2016-03-08T08:51:24.341Z,56
2016-03-08T08:52:24.547Z,56
2016-03-08T08:53:24.221Z,64
2016-03-08T08:54:24.161Z,60
2016-03-08T08:55:24.320Z,60
2016-03-08T08:56:24.073Z,60
2016-03-08T08:57:24.060Z,64
2016-03-08T08:58:23.938Z,56
2016-03-08T08:59:23.878Z,52
2016-03-08T09:00:23.802Z,48
2016-03-08T09:01:23.758Z,48
2016-03-08T09:02:23.699Z,48
2016-03-08T09:03:23.670Z,48
2016-03-08T09:04:23.579Z,52
2016-03-08T09:05:23.550Z,48
2016-03-08T09:06:23.491Z,52
2016-03-08T09:07:23.446Z,48
2016-03-08T09:08:23.340Z,48
2016-03-08T09:09:23.280Z,44
2016-03-08T09:10:23.282Z,44
2016-03-08T09:11:23.160Z,44
2016-03-08T09:12:23.132Z,44
2016-03-08T09:13:23.056Z,44
2016-03-08T09:14:23.019Z,48
2016-03-08T09:15:22.928Z,48
2016-03-08T09:16:22.915Z,48
2016-03-08T09:17:22.839Z,52
2016-03-08T09:18:22.794Z,48
2016-03-08T09:19:22.705Z,52
2016-03-08T09:20:22.675Z,60
2016-03-08T09:21:22.616Z,56
2016-03-08T09:22:22.556Z,60
2016-03-08T09:23:22.480Z,60
2016-03-08T09:24:22.421Z,68
2016-03-08T09:25:22.393Z,72
2016-03-08T09:26:22.146Z,76
2016-03-08T09:27:22.257Z,72
2016-03-08T09:28:22.197Z,68
2016-03-08T09:29:22.138Z,68
2016-03-08T09:30:21.921Z,72
2016-03-08T09:31:22.002Z,76
2016-03-08T09:32:21.957Z,72
2016-03-08T09:33:21.914Z,76
2016-03-08T09:34:21.853Z,76
2016-03-08T09:35:21.795Z,80
2016-03-08T09:36:21.734Z,88
2016-03-08T09:37:21.658Z,88
2016-03-08T09:38:21.598Z,80
2016-03-08T09:39:21.555Z,76
2016-03-08T09:40:21.495Z,76
2016-03-08T09:41:21.451Z,84
2016-03-08T09:42:21.422Z,88
2016-03-08T09:43:21.316Z,84
2016-03-08T09:44:21.271Z,84
2016-03-08T09:45:21.228Z,80
2016-03-08T09:46:21.183Z,76
2016-03-08T09:47:21.138Z,76
2016-03-08T09:48:21.048Z,56
2016-03-08T09:49:20.972Z,56
2016-03-08T09:50:20.928Z,52
2016-03-08T09:51:20.884Z,52
2016-03-08T09:52:20.871Z,52
2016-03-08T09:53:20.811Z,56
2016-03-08T09:54:20.720Z,64
2016-03-08T09:55:20.644Z,92
2016-03-08T09:56:20.601Z,52
2016-03-08T09:57:20.524Z,52
2016-03-08T09:58:20.465Z,52
2016-03-08T09:59:20.405Z,56
2016-03-08T10:00:20.362Z,64
2016-03-08T10:01:20.301Z,68
2016-03-08T10:02:20.226Z,68
2016-03-08T10:03:20.197Z,64
2016-03-08T10:04:20.138Z,60
2016-03-08T10:05:20.078Z,56
2016-03-08T10:06:20.034Z,56
2016-03-08T10:07:19.960Z,56
2016-03-08T10:08:19.915Z,64
2016-03-08T10:09:19.824Z,68
2016-03-08T10:10:19.827Z,160
2016-03-08T10:11:19.751Z,120
2016-03-08T10:12:19.660Z,100
2016-03-08T10:13:19.616Z,104
2016-03-08T10:14:19.587Z,148
2016-03-08T10:15:19.512Z,124
2016-03-08T10:16:19.445Z,104
2016-03-08T10:17:19.393Z,100
2016-03-08T10:18:19.322Z,128
2016-03-08T10:19:19.221Z,144
2016-03-08T10:20:19.167Z,128
2016-03-08T10:21:19.148Z,204
2016-03-08T10:22:19.226Z,164
2016-03-08T10:23:18.991Z,148
2016-03-08T10:24:18.957Z,144
2016-03-08T10:25:18.895Z,140
2016-03-08T10:26:18.802Z,124
2016-03-08T10:27:18.787Z,108
2016-03-08T10:28:18.696Z,104
2016-03-08T10:29:18.651Z,116
2016-03-08T10:30:18.574Z,136
2016-03-08T10:31:18.544Z,116
2016-03-08T10:32:18.484Z,108
2016-03-08T10:33:18.408Z,100
2016-03-08T10:34:18.347Z,88
2016-03-08T10:35:18.366Z,80
2016-03-08T10:36:18.259Z,76
2016-03-08T10:37:18.199Z,68
2016-03-08T10:38:18.154Z,68
2016-03-08T10:39:18.078Z,80
2016-03-08T10:40:17.939Z,96
2016-03-08T10:41:17.974Z,132
2016-03-08T10:42:17.930Z,212
2016-03-08T10:43:17.869Z,216
2016-03-08T10:44:17.810Z,228
2016-03-08T10:45:17.750Z,232
2016-03-08T10:46:17.705Z,212
2016-03-08T10:47:17.663Z,160
2016-03-08T10:48:17.602Z,176
2016-03-08T10:49:17.542Z,92
2016-03-08T10:50:17.561Z,80
2016-03-08T10:51:17.391Z,84
2016-03-08T10:52:17.378Z,84
2016-03-08T10:53:17.304Z,112
2016-03-08T10:54:17.306Z,80
2016-03-08T10:55:17.215Z,144
2016-03-08T10:56:17.155Z,208
2016-03-08T10:57:17.126Z,216
2016-03-08T10:58:17.003Z,228
2016-03-08T10:59:16.976Z,216
2016-03-08T11:00:16.993Z,180
2016-03-08T11:01:16.839Z,112
2016-03-08T11:02:16.812Z,112
2016-03-08T11:03:16.736Z,120
2016-03-08T11:04:16.708Z,192
2016-03-08T11:05:16.679Z,120
2016-03-08T11:06:16.619Z,204
2016-03-08T11:07:16.544Z,228
2016-03-08T11:08:16.469Z,188
2016-03-08T11:09:16.439Z,152
2016-03-08T11:10:16.364Z,192
2016-03-08T11:11:16.305Z,100
2016-03-08T11:12:16.275Z,84
2016-03-08T11:13:16.186Z,76
2016-03-08T11:14:16.156Z,76
2016-03-08T11:15:16.065Z,76
2016-03-08T11:16:16.022Z,72
2016-03-08T11:17:16.008Z,76
2016-03-08T11:18:15.932Z,76
2016-03-08T11:19:15.904Z,84
2016-03-08T11:20:15.829Z,76
2016-03-08T11:21:15.769Z,76
2016-03-08T11:22:15.693Z,72
2016-03-08T11:23:15.649Z,76
2016-03-08T11:24:15.604Z,116
2016-03-08T11:25:15.560Z,224
2016-03-08T11:26:15.485Z,96
2016-03-08T11:27:15.425Z,96
2016-03-08T11:28:15.366Z,112
2016-03-08T11:29:15.337Z,136
2016-03-08T11:30:15.262Z,160
2016-03-08T11:31:15.218Z,180
2016-03-08T11:32:15.158Z,100
2016-03-08T11:33:15.082Z,84
2016-03-08T11:34:15.054Z,76
2016-03-08T11:35:15.025Z,72
2016-03-08T11:36:14.934Z,68
2016-03-08T11:37:14.889Z,64
2016-03-08T11:38:14.815Z,64
2016-03-08T11:39:14.755Z,64
2016-03-08T11:40:14.710Z,64
2016-03-08T11:41:14.714Z,60
2016-03-08T11:42:14.591Z,64
2016-03-08T11:43:14.593Z,64
2016-03-08T11:44:14.519Z,68
2016-03-08T11:45:14.444Z,68
2016-03-08T11:46:14.383Z,76
2016-03-08T11:47:14.370Z,72
2016-03-08T11:48:14.264Z,76
2016-03-08T11:49:14.250Z,72
2016-03-08T11:50:14.206Z,72
2016-03-08T11:51:14.099Z,72
2016-03-08T11:52:13.930Z,76
2016-03-08T11:53:13.995Z,76
2016-03-08T11:54:13.935Z,72
2016-03-08T11:55:13.891Z,68
2016-03-08T11:56:13.832Z,64
2016-03-08T11:57:13.787Z,68
2016-03-08T11:58:13.712Z,72
2016-03-08T11:59:13.668Z,76
2016-03-08T12:00:13.623Z,72
2016-03-08T12:01:13.549Z,72
2016-03-08T12:02:13.504Z,76
2016-03-08T12:03:13.444Z,76
2016-03-08T12:04:13.385Z,76
2016-03-08T12:05:13.215Z,80
2016-03-08T12:06:13.313Z,80
2016-03-08T12:07:13.254Z,80
2016-03-08T12:08:13.178Z,76
2016-03-08T12:09:13.135Z,76
2016-03-08T12:10:13.074Z,72
2016-03-08T12:11:12.999Z,72
2016-03-08T12:12:12.955Z,72
2016-03-08T12:13:12.895Z,72
2016-03-08T12:14:12.851Z,72
2016-03-08T12:15:12.776Z,64
2016-03-08T12:16:12.732Z,60
2016-03-08T12:17:12.702Z,60
2016-03-08T12:18:12.627Z,56
2016-03-08T12:19:12.599Z,56
2016-03-08T12:20:12.539Z,52
2016-03-08T12:21:12.462Z,48
2016-03-08T12:22:12.388Z,48
2016-03-08T12:23:12.343Z,48
2016-03-08T12:24:12.284Z,44
2016-03-08T12:25:12.209Z,44
2016-03-08T12:26:12.195Z,44
2016-03-08T12:27:12.136Z,44
2016-03-08T12:28:12.091Z,44
2016-03-08T12:29:12.001Z,40
2016-03-08T12:30:11.972Z,36
2016-03-08T12:31:11.928Z,36
2016-03-08T12:32:11.884Z,36
2016-03-08T12:33:11.792Z,36
2016-03-08T12:34:11.748Z,32
2016-03-08T12:35:11.579Z,32
2016-03-08T12:36:11.660Z,32
2016-03-08T12:37:11.585Z,36
2016-03-08T12:38:11.571Z,32
2016-03-08T12:39:11.481Z,32
2016-03-08T12:40:11.405Z,32
2016-03-08T12:41:11.407Z,32
2016-03-08T12:42:11.316Z,32
2016-03-08T12:43:11.257Z,36
2016-03-08T12:44:11.213Z,36
2016-03-08T12:45:11.152Z,36
2016-03-08T12:46:11.078Z,36
2016-03-08T12:47:11.018Z,36
2016-03-08T12:48:10.989Z,36
2016-03-08T12:49:10.899Z,40
2016-03-08T12:50:10.963Z,40
2016-03-08T12:51:10.778Z,40
2016-03-08T12:52:10.734Z,44
2016-03-08T12:53:10.674Z,44
2016-03-08T12:54:10.631Z,44
2016-03-08T12:55:10.570Z,48
2016-03-08T12:56:10.511Z,48
2016-03-08T12:57:10.451Z,52
2016-03-08T12:58:10.437Z,56
2016-03-08T12:59:10.362Z,60
2016-03-08T13:00:10.287Z,68
2016-03-08T13:01:10.228Z,100
2016-03-08T13:02:10.183Z,132
2016-03-08T13:03:10.123Z,132
2016-03-08T13:04:10.048Z,88
2016-03-08T13:05:10.019Z,104
2016-03-08T13:06:09.957Z,116
2016-03-08T13:07:09.898Z,80
2016-03-08T13:08:09.871Z,76
2016-03-08T13:09:09.795Z,76
2016-03-08T13:10:09.734Z,80
2016-03-08T13:11:09.675Z,112
2016-03-08T13:12:09.646Z,136
2016-03-08T13:13:09.587Z,148
2016-03-08T13:14:09.511Z,148
2016-03-08T13:15:09.514Z,168
2016-03-08T13:16:09.423Z,168
2016-03-08T13:17:09.348Z,144
2016-03-08T13:18:09.303Z,88
2016-03-08T13:19:09.275Z,128
2016-03-08T13:20:09.214Z,84
2016-03-08T13:21:09.139Z,80
2016-03-08T13:22:09.064Z,68
2016-03-08T13:23:09.020Z,60
2016-03-08T13:24:08.960Z,64
2016-03-08T13:25:08.900Z,56
2016-03-08T13:26:08.856Z,44
2016-03-08T13:27:08.796Z,48
2016-03-08T13:28:08.767Z,44
2016-03-08T13:29:08.708Z,40
2016-03-08T13:30:08.647Z,36
2016-03-08T13:31:08.572Z,36
2016-03-08T13:32:08.544Z,32
2016-03-08T13:33:08.438Z,36
2016-03-08T13:34:08.408Z,32
2016-03-08T13:35:08.364Z,32
2016-03-08T13:36:08.289Z,28
2016-03-08T13:37:08.245Z,28
2016-03-08T13:38:08.201Z,28
2016-03-08T13:39:08.126Z,24
2016-03-08T13:40:08.065Z,20
2016-03-08T13:41:08.021Z,20
2016-03-08T13:42:07.976Z,24
2016-03-08T13:43:07.902Z,20
2016-03-08T13:44:07.842Z,20
2016-03-08T13:45:07.782Z,16
2016-03-08T13:46:07.707Z,16
2016-03-08T13:47:07.693Z,12
2016-03-08T13:48:07.650Z,16
2016-03-08T13:49:07.605Z,12
2016-03-08T13:50:07.483Z,12
2016-03-08T13:51:07.454Z,12
2016-03-08T13:52:07.422Z,8
2016-03-08T13:53:07.316Z,8
2016-03-08T13:54:07.303Z,12
2016-03-08T13:55:07.212Z,12
2016-03-08T13:56:07.136Z,16
2016-03-08T13:57:07.108Z,16
2016-03-08T13:58:07.049Z,16
2016-03-08T13:59:07.019Z,16
2016-03-08T14:00:06.960Z,12
2016-03-08T14:01:06.885Z,12
2016-03-08T14:02:06.825Z,12
2016-03-08T14:03:06.765Z,12
2016-03-08T14:04:06.737Z,16
2016-03-08T14:05:06.677Z,16
2016-03-08T14:06:06.585Z,16
2016-03-08T14:07:06.540Z,16
2016-03-08T14:08:06.466Z,16
2016-03-08T14:09:06.421Z,16
2016-03-08T14:10:06.378Z,20
2016-03-08T14:11:06.318Z,20
2016-03-08T14:12:06.258Z,24
2016-03-08T14:13:06.198Z,20
2016-03-08T14:14:06.138Z,20
2016-03-08T14:15:06.094Z,24
2016-03-08T14:16:06.050Z,24
2016-03-08T14:17:05.975Z,24
2016-03-08T14:18:05.915Z,28
2016-03-08T14:19:05.886Z,28
2016-03-08T14:20:05.795Z,28
2016-03-08T14:21:05.751Z,28
2016-03-08T14:22:05.706Z,32
2016-03-08T14:23:05.647Z,32
2016-03-08T14:24:05.603Z,32
2016-03-08T14:25:05.543Z,36
2016-03-08T14:26:05.452Z,36
2016-03-08T14:27:05.439Z,40
2016-03-08T14:28:05.347Z,52